Time;durP1;ratioP1;P1;durP2;ratioP2;P2;SDS_P1;SDS_P2;PMS_P1;PMS_P2;Temp;Humidity;BMP_temperature;BMP_pressure;BME280_temperature;BME280_humidity;BME280_pressure;Samples;Min_cycle;Max_cycle;Signal;HPM_P1;HPM_P2
2023/04/12 00:02:07;;;;;;;14.75;8.82;;;;;;;9.35;56.35;94078.25;5005638;28;20030;-82
2023/04/12 00:04:34;;;;;;;12.15;8.85;;;;;;;9.26;56.69;94079.75;5004848;28;20022;-81
2023/04/12 00:07:01;;;;;;;11.13;8.35;;;;;;;9.24;56.75;94070.47;5004096;28;20022;-82
2023/04/12 00:09:30;;;;;;;11.70;8.35;;;;;;;9.25;56.88;94080.97;5004084;28;20037;-81
2023/04/12 00:11:59;;;;;;;11.70;8.13;;;;;;;9.19;56.95;94063.56;5004190;28;20018;-81
2023/04/12 00:14:25;;;;;;;11.55;8.32;;;;;;;9.26;56.70;94068.03;4987311;28;20472;-81
2023/04/12 00:16:51;;;;;;;12.18;9.20;;;;;;;9.19;57.13;94076.53;5004417;28;20022;-81
2023/04/12 00:19:16;;;;;;;13.93;9.30;;;;;;;9.17;57.14;94073.44;5003114;28;20091;-82
2023/04/12 00:21:42;;;;;;;13.15;9.07;;;;;;;9.19;57.22;94071.03;5004633;28;20488;-81
2023/04/12 00:24:08;;;;;;;14.25;9.35;;;;;;;9.34;56.82;94061.03;5004195;28;20033;-81
2023/04/12 00:26:33;;;;;;;11.23;8.82;;;;;;;9.36;56.52;94066.09;5005115;28;20026;-81
2023/04/12 00:28:59;;;;;;;12.00;9.23;;;;;;;9.23;56.80;94069.69;5003640;28;20109;-81
2023/04/12 00:31:25;;;;;;;12.05;9.10;;;;;;;9.30;56.76;94057.69;4987295;28;20130;-82
2023/04/12 00:33:50;;;;;;;13.00;9.80;;;;;;;9.18;56.99;94055.81;5004031;28;20489;-82
2023/04/12 00:36:16;;;;;;;14.30;9.23;;;;;;;9.12;57.31;94054.84;5003655;28;20080;-80
2023/04/12 00:38:41;;;;;;;14.15;9.18;;;;;;;9.24;56.91;94057.50;5004452;28;20030;-80
2023/04/12 00:41:07;;;;;;;11.48;9.32;;;;;;;9.29;56.76;94059.66;5002677;28;20030;-81
2023/04/12 00:43:33;;;;;;;12.90;9.15;;;;;;;9.31;56.63;94054.50;5004471;28;20101;-81
2023/04/12 00:45:58;;;;;;;13.35;8.85;;;;;;;9.29;56.91;94054.19;5013403;28;20041;-82
2023/04/12 00:48:25;;;;;;;13.07;9.32;;;;;;;9.27;56.90;94053.09;5003664;28;20034;-81
2023/04/12 00:50:54;;;;;;;13.02;9.30;;;;;;;9.15;57.15;94043.75;5002394;28;20033;-83
2023/04/12 00:53:20;;;;;;;14.95;9.65;;;;;;;9.20;57.20;94040.41;5003716;28;20028;-81
2023/04/12 00:55:49;;;;;;;14.82;9.52;;;;;;;9.24;57.08;94049.28;5002727;28;20104;-81
2023/04/12 00:58:15;;;;;;;13.38;9.60;;;;;;;9.26;57.14;94052.34;4964973;28;1130707;-81
2023/04/12 01:00:48;;;;;;;13.30;9.38;;;;;;;9.28;56.96;94047.16;5003735;28;20408;-81
2023/04/12 01:03:21;;;;;;;13.13;9.05;;;;;;;9.22;57.12;94046.22;5004481;28;20034;-81
2023/04/12 01:06:28;;;;;;;14.02;9.18;;;;;;;9.26;56.96;94049.59;5005382;28;20034;-81
2023/04/12 01:09:29;;;;;;;15.15;10.50;;;;;;;9.32;56.67;94053.28;5004820;28;20137;-81
2023/04/12 01:12:12;;;;;;;15.15;9.68;;;;;;;9.34;56.86;94036.34;5003348;28;20077;-81
2023/04/12 01:14:50;;;;;;;13.95;10.00;;;;;;;9.28;56.80;94046.38;5005614;28;20056;-81
2023/04/12 01:17:21;;;;;;;12.55;9.40;;;;;;;9.23;57.15;94042.28;5004454;28;20030;-81
2023/04/12 01:19:56;;;;;;;13.88;9.40;;;;;;;9.27;57.15;94045.63;5003644;28;20038;-81
2023/04/12 01:22:28;;;;;;;16.10;10.60;;;;;;;9.28;57.13;94049.91;5004045;28;20037;-81
2023/04/12 01:25:05;;;;;;;16.10;10.83;;;;;;;9.26;57.03;94044.09;5004182;28;20503;-81
2023/04/12 01:27:49;;;;;;;13.73;9.60;;;;;;;9.35;56.61;94039.88;5004190;28;20277;-83
2023/04/12 01:30:16;;;;;;;14.07;10.50;;;;;;;9.29;57.04;94036.97;5002828;28;20038;-82
2023/04/12 01:32:49;;;;;;;14.13;9.95;;;;;;;9.29;56.78;94045.19;5003355;28;20072;-82
2023/04/12 01:35:16;;;;;;;14.57;10.10;;;;;;;9.17;57.22;94046.03;5003277;28;20022;-81
2023/04/12 01:37:42;;;;;;;16.13;10.73;;;;;;;9.13;57.60;94046.19;5002822;28;20040;-81
2023/04/12 01:40:09;;;;;;;12.75;9.63;;;;;;;9.15;57.78;94048.47;4995040;28;20022;-81
2023/04/12 01:42:34;;;;;;;13.75;10.60;;;;;;;9.09;57.90;94050.25;5005788;28;20033;-81
2023/04/12 01:45:01;;;;;;;15.40;10.30;;;;;;;8.96;58.41;94050.34;5003554;28;20030;-81
2023/04/12 01:47:27;;;;;;;15.10;9.95;;;;;;;9.02;58.35;94052.06;5003004;28;20030;-82
2023/04/12 01:50:21;;;;;;;14.13;9.98;;;;;;;8.98;58.57;94053.38;5004744;28;20071;-82
2023/04/12 01:53:02;;;;;;;15.50;10.48;;;;;;;9.15;58.11;94056.69;5003547;28;20537;-81
2023/04/12 01:55:29;;;;;;;15.70;10.50;;;;;;;9.11;57.98;94042.34;4986286;28;20033;-81
2023/04/12 01:57:56;;;;;;;13.50;9.98;;;;;;;9.21;57.85;94047.44;5005346;28;20078;-82
2023/04/12 02:00:21;;;;;;;14.35;9.40;;;;;;;9.30;57.48;94046.72;5006188;28;20038;-82
2023/04/12 02:02:47;;;;;;;16.33;10.75;;;;;;;9.33;57.28;94054.03;5006699;28;20508;-80
2023/04/12 02:05:12;;;;;;;16.30;10.77;;;;;;;9.42;56.95;94042.34;5006009;28;20408;-82
2023/04/12 02:07:39;;;;;;;16.55;10.43;;;;;;;9.45;57.03;94046.94;5006267;28;20022;-81
2023/04/12 02:10:05;;;;;;;13.90;9.88;;;;;;;9.36;57.03;94033.94;5006568;28;20033;-82
2023/04/12 02:12:30;;;;;;;14.65;10.68;;;;;;;9.42;56.82;94042.34;5007586;28;20108;-80
2023/04/12 02:14:56;;;;;;;14.68;10.52;;;;;;;9.47;56.49;94041.78;5007013;28;20116;-81
2023/04/12 02:17:22;;;;;;;14.82;10.30;;;;;;;9.36;56.83;94035.94;5006979;28;20026;-80
2023/04/12 02:19:47;;;;;;;15.27;10.70;;;;;;;9.38;56.60;94041.72;5006638;28;20416;-82
2023/04/12 02:22:13;;;;;;;17.05;10.27;;;;;;;9.28;57.15;94029.94;5007221;28;20022;-82
2023/04/12 02:24:38;;;;;;;19.05;12.63;;;;;;;9.28;57.39;94043.66;5007454;28;20502;-81
2023/04/12 02:27:04;;;;;;;16.60;10.95;;;;;;;9.30;57.05;94036.50;5006206;28;20472;-81
2023/04/12 02:29:30;;;;;;;15.50;10.43;;;;;;;9.32;57.10;94033.31;5007151;28;20105;-81
2023/04/12 02:31:56;;;;;;;16.20;11.35;;;;;;;9.34;57.26;94030.13;5006229;28;20098;-81
2023/04/12 02:34:21;;;;;;;17.25;11.48;;;;;;;9.31;57.16;94031.78;5007600;28;20448;-81
2023/04/12 02:36:47;;;;;;;16.10;11.27;;;;;;;9.20;57.80;94034.16;5017171;28;20053;-82
2023/04/12 02:39:13;;;;;;;17.88;11.77;;;;;;;9.13;57.88;94029.72;5005842;28;20037;-81
2023/04/12 02:41:39;;;;;;;14.65;10.75;;;;;;;8.93;58.56;94023.81;5006474;28;20026;-81
2023/04/12 02:44:04;;;;;;;15.35;11.13;;;;;;;8.94;58.58;94020.63;5006194;28;20116;-81
2023/04/12 02:46:30;;;;;;;16.38;10.85;;;;;;;9.11;57.94;94020.41;5005260;28;20034;-81
2023/04/12 02:48:55;;;;;;;15.73;10.85;;;;;;;9.17;57.99;94019.38;5007286;28;20527;-80
2023/04/12 02:51:20;;;;;;;17.35;10.52;;;;;;;9.17;57.78;94015.88;5005224;28;20025;-80
2023/04/12 02:53:46;;;;;;;15.50;10.73;;;;;;;9.08;57.92;94027.56;5007469;28;20108;-80
2023/04/12 02:56:11;;;;;;;15.25;9.82;;;;;;;8.99;58.42;94024.75;5006635;28;20026;-81
2023/04/12 02:58:37;;;;;;;16.65;11.43;;;;;;;9.14;58.11;94014.78;5005614;28;20531;-82
2023/04/12 03:01:06;;;;;;;16.40;10.80;;;;;;;9.25;58.11;94017.91;5005219;28;20032;-82
2023/04/12 03:03:34;;;;;;;15.68;11.20;;;;;;;9.31;58.31;94020.81;5006544;28;20104;-81
2023/04/12 03:06:00;;;;;;;17.13;11.43;;;;;;;9.34;58.39;94013.66;5006706;28;20037;-81
2023/04/12 03:08:25;;;;;;;16.73;11.73;;;;;;;9.45;58.19;94014.00;5004269;28;20026;-83
2023/04/12 03:10:51;;;;;;;16.27;11.88;;;;;;;9.55;57.88;94021.06;5005498;28;20405;-82
2023/04/12 03:13:16;;;;;;;15.93;11.13;;;;;;;9.50;58.10;94019.66;5004815;28;20417;-81
2023/04/12 03:15:42;;;;;;;17.08;11.23;;;;;;;9.45;58.35;94017.50;5007309;28;20053;-82
2023/04/12 03:18:08;;;;;;;16.40;11.45;;;;;;;9.55;58.04;94024.56;5006135;28;20476;-81
2023/04/12 03:20:33;;;;;;;17.75;12.25;;;;;;;9.63;58.32;94027.78;5006518;28;20144;-81
2023/04/12 03:22:59;;;;;;;17.33;11.77;;;;;;;9.65;58.55;94030.09;4988586;28;20045;-81
2023/04/12 03:25:24;;;;;;;16.15;12.00;;;;;;;9.69;58.35;94038.94;5004818;28;20026;-81
2023/04/12 03:27:50;;;;;;;21.58;12.82;;;;;;;9.68;58.42;94029.94;5006555;28;20029;-81
2023/04/12 03:30:16;;;;;;;17.58;11.68;;;;;;;9.67;58.30;94036.66;5010001;28;20089;-81
2023/04/12 03:32:41;;;;;;;19.98;12.65;;;;;;;9.62;58.66;94033.72;5012989;28;20056;-82
2023/04/12 03:35:10;;;;;;;18.35;12.60;;;;;;;9.64;58.43;94031.31;4988574;28;20341;-81
2023/04/12 03:37:36;;;;;;;19.15;12.45;;;;;;;9.51;59.06;94026.69;5005074;28;20029;-81
2023/04/12 03:40:01;;;;;;;22.23;13.00;;;;;;;9.52;58.84;94030.97;5004729;28;20098;-82
2023/04/12 03:42:27;;;;;;;20.70;13.95;;;;;;;9.45;59.10;94033.22;5004700;28;20026;-81
2023/04/12 03:44:53;;;;;;;18.58;12.77;;;;;;;9.45;59.00;94036.72;5004651;28;20088;-81
2023/04/12 03:47:19;;;;;;;21.20;14.02;;;;;;;9.47;59.03;94050.00;5004686;28;20415;-83
2023/04/12 03:49:46;;;;;;;18.00;13.85;;;;;;;9.49;58.71;94044.81;5004704;28;20061;-81
2023/04/12 03:52:11;;;;;;;19.70;13.27;;;;;;;9.54;58.34;94045.00;5004159;28;20080;-82
2023/04/12 03:54:37;;;;;;;18.42;13.32;;;;;;;9.54;58.52;94045.00;5004868;28;20452;-82
2023/04/12 03:57:03;;;;;;;19.65;12.35;;;;;;;9.58;58.25;94045.63;5005406;28;20040;-82
2023/04/12 03:59:28;;;;;;;18.15;12.27;;;;;;;9.65;58.19;94052.81;5005685;28;20069;-82
2023/04/12 04:01:57;;;;;;;19.80;13.48;;;;;;;9.55;58.33;94048.50;5005794;28;20232;-81
2023/04/12 04:04:23;;;;;;;21.02;13.40;;;;;;;9.67;58.17;94047.63;5003967;28;20076;-81
2023/04/12 04:06:49;;;;;;;19.15;13.15;;;;;;;9.74;58.00;94049.31;5004052;28;20499;-82
2023/04/12 04:09:14;;;;;;;19.67;13.43;;;;;;;9.75;58.03;94057.13;5003734;28;20064;-82
2023/04/12 04:11:40;;;;;;;19.20;13.52;;;;;;;9.72;58.16;94058.00;5005922;28;20083;-82
2023/04/12 04:14:06;;;;;;;19.38;13.88;;;;;;;9.57;58.44;94065.25;5003704;28;20036;-82
2023/04/12 04:16:31;;;;;;;18.67;13.23;;;;;;;9.53;58.44;94070.16;5005708;28;20148;-82
2023/04/12 04:18:57;;;;;;;17.40;12.38;;;;;;;9.64;58.17;94077.97;5003878;28;20525;-82
2023/04/12 04:21:22;;;;;;;19.40;13.70;;;;;;;9.69;58.07;94075.41;5005474;28;20565;-82
2023/04/12 04:23:50;;;;;;;19.27;12.63;;;;;;;9.67;57.76;94075.06;5003751;28;20544;-83
2023/04/12 04:26:16;;;;;;;18.63;12.48;;;;;;;9.60;57.98;94077.34;5014033;28;20030;-83
2023/04/12 04:28:45;;;;;;;19.67;13.35;;;;;;;9.69;57.84;94071.88;5007466;28;20022;-82
2023/04/12 04:31:11;;;;;;;19.70;13.77;;;;;;;9.67;57.70;94072.31;5004674;28;20109;-81
2023/04/12 04:33:37;;;;;;;20.48;13.27;;;;;;;9.48;57.93;94076.22;4987732;28;20037;-82
2023/04/12 04:36:04;;;;;;;19.85;13.38;;;;;;;9.24;58.34;94079.44;5003589;28;20058;-81
2023/04/12 04:38:31;;;;;;;19.98;13.80;;;;;;;9.14;58.63;94077.88;4987609;28;20032;-81
2023/04/12 04:40:58;;;;;;;20.35;13.70;;;;;;;9.30;58.00;94082.38;5003474;28;20103;-82
2023/04/12 04:43:25;;;;;;;20.60;14.75;;;;;;;9.31;58.15;94090.16;5005043;28;20022;-81
2023/04/12 04:45:53;;;;;;;21.35;13.35;;;;;;;9.37;57.81;94092.31;5005060;28;20062;-82
2023/04/12 04:48:20;;;;;;;20.60;12.38;;;;;;;9.29;58.07;94091.81;5003332;28;20026;-82
2023/04/12 04:50:45;;;;;;;20.10;13.10;;;;;;;9.30;57.73;94094.13;5004224;28;20557;-81
2023/04/12 04:53:11;;;;;;;19.25;12.18;;;;;;;9.38;57.52;94093.84;5003207;28;20038;-83
2023/04/12 04:55:37;;;;;;;18.92;12.38;;;;;;;9.25;57.75;94096.66;5005315;28;20109;-82
2023/04/12 04:58:02;;;;;;;17.88;11.95;;;;;;;9.28;57.46;94093.00;5003880;28;20042;-82
2023/04/12 05:00:27;;;;;;;17.58;12.65;;;;;;;9.18;57.86;94092.22;5004920;28;20018;-81
2023/04/12 05:02:53;;;;;;;17.90;11.38;;;;;;;9.26;57.39;94100.94;5003341;28;20030;-82
2023/04/12 05:05:21;;;;;;;19.27;12.15;;;;;;;9.28;57.49;94110.22;5004112;28;20143;-82
2023/04/12 05:07:47;;;;;;;18.02;12.30;;;;;;;9.23;57.29;94110.84;5003621;28;20456;-82
2023/04/12 05:10:13;;;;;;;17.13;11.63;;;;;;;9.23;57.02;94119.06;5004279;28;20144;-83
2023/04/12 05:12:38;;;;;;;15.80;11.10;;;;;;;9.29;56.75;94114.53;5005314;28;20026;-81
2023/04/12 05:15:04;;;;;;;16.20;10.68;;;;;;;9.11;56.84;94110.88;4986595;28;20083;-82
2023/04/12 05:17:30;;;;;;;15.63;10.40;;;;;;;9.11;56.86;94114.38;5003517;28;20037;-82
2023/04/12 05:19:56;;;;;;;14.23;9.70;;;;;;;9.20;56.68;94114.47;5004599;28;20045;-82
2023/04/12 05:22:21;;;;;;;15.25;9.48;;;;;;;9.26;56.04;94112.66;5011468;28;20021;-82
2023/04/12 05:24:47;;;;;;;13.00;9.48;;;;;;;9.19;55.93;94112.94;5004454;28;20187;-82
2023/04/12 05:27:15;;;;;;;13.80;9.10;;;;;;;9.24;55.53;94104.13;5003156;28;20026;-82
2023/04/12 05:29:41;;;;;;;14.52;9.07;;;;;;;9.27;55.83;94114.19;5003960;28;20030;-82
2023/04/12 05:32:06;;;;;;;12.15;8.75;;;;;;;9.24;55.69;94114.34;5004754;28;20022;-82
2023/04/12 05:34:32;;;;;;;12.65;8.60;;;;;;;9.25;55.41;94110.38;5007566;28;20692;-82
2023/04/12 05:36:58;;;;;;;11.52;8.60;;;;;;;9.24;55.38;94117.09;5008142;28;20028;-82
2023/04/12 05:39:24;;;;;;;11.90;8.23;;;;;;;9.30;54.87;94116.06;5008329;28;20046;-82
2023/04/12 05:41:50;;;;;;;10.95;7.40;;;;;;;9.35;54.03;94113.91;5006916;28;20428;-82
2023/04/12 05:44:15;;;;;;;8.45;6.18;;;;;;;9.46;53.63;94123.31;5006802;28;20030;-82
2023/04/12 05:46:41;;;;;;;9.38;6.95;;;;;;;9.45;53.20;94113.53;5009042;28;20117;-82
2023/04/12 05:49:06;;;;;;;8.77;6.55;;;;;;;9.40;52.74;94119.59;5006472;28;20093;-82
2023/04/12 05:51:32;;;;;;;10.20;6.22;;;;;;;9.51;52.33;94128.19;5008951;28;20026;-82
2023/04/12 05:53:57;;;;;;;8.93;6.10;;;;;;;9.45;52.35;94130.00;5007720;28;20030;-82
2023/04/12 05:56:22;;;;;;;8.55;5.78;;;;;;;9.29;52.35;94132.97;5008390;28;20538;-82
2023/04/12 05:58:48;;;;;;;7.75;5.10;;;;;;;9.42;52.22;94122.66;5007818;28;20045;-83
2023/04/12 06:01:15;;;;;;;8.68;5.90;;;;;;;9.37;52.58;94120.50;4989766;28;20030;-82
2023/04/12 06:03:42;;;;;;;9.98;6.53;;;;;;;9.11;53.44;94114.38;5006685;28;20109;-82
2023/04/12 06:06:08;;;;;;;9.27;5.82;;;;;;;9.27;53.06;94132.63;5007327;28;20022;-82
2023/04/12 06:08:35;;;;;;;8.73;6.32;;;;;;;9.20;53.17;94158.34;5007049;28;20030;-82
2023/04/12 06:11:00;;;;;;;10.35;6.20;;;;;;;9.20;52.91;94146.59;5005771;28;20049;-82
2023/04/12 06:13:26;;;;;;;8.50;5.97;;;;;;;8.99;53.74;94151.63;5006815;28;20057;-82
2023/04/12 06:15:51;;;;;;;10.60;6.85;;;;;;;8.99;53.79;94148.13;5010554;28;20026;-83
2023/04/12 06:18:17;;;;;;;9.90;6.40;;;;;;;8.91;53.77;94158.56;5016986;28;20038;-81
2023/04/12 06:20:42;;;;;;;8.10;5.50;;;;;;;8.93;53.51;94172.59;5007750;28;20053;-81
2023/04/12 06:23:08;;;;;;;10.15;5.80;;;;;;;9.03;53.08;94168.72;5006937;28;20076;-82
2023/04/12 06:25:33;;;;;;;9.63;5.22;;;;;;;9.12;52.83;94154.31;5007980;28;20083;-82
2023/04/12 06:27:59;;;;;;;6.78;5.13;;;;;;;9.07;52.50;94146.66;5006777;28;20033;-83
2023/04/12 06:30:24;;;;;;;8.93;4.95;;;;;;;9.26;52.37;94153.81;5008129;28;20219;-82
2023/04/12 06:32:50;;;;;;;8.32;5.22;;;;;;;9.18;52.39;94152.53;5007263;28;20084;-82
2023/04/12 06:35:15;;;;;;;7.57;5.32;;;;;;;9.24;52.29;94150.75;5007681;28;20034;-82
2023/04/12 06:37:41;;;;;;;6.90;4.45;;;;;;;9.36;52.48;94146.41;5007237;28;20389;-82
2023/04/12 06:40:08;;;;;;;6.38;4.88;;;;;;;9.38;52.31;94134.97;5005654;28;20053;-81
2023/04/12 06:42:33;;;;;;;8.43;5.00;;;;;;;9.57;51.98;94145.59;5007795;28;20030;-81
2023/04/12 06:44:59;;;;;;;6.50;4.07;;;;;;;9.50;52.15;94140.38;5005496;28;20034;-83
2023/04/12 06:47:24;;;;;;;7.28;4.50;;;;;;;9.40;52.07;94130.56;5007640;28;20071;-83
2023/04/12 06:49:54;;;;;;;7.70;5.03;;;;;;;9.49;51.92;94136.13;5005200;28;20022;-82
2023/04/12 06:52:25;;;;;;;6.72;4.07;;;;;;;9.43;52.38;94124.19;5007403;28;20048;-82
2023/04/12 06:54:51;;;;;;;5.63;3.85;;;;;;;9.40;52.65;94116.84;5005722;28;20377;-82
2023/04/12 06:57:16;;;;;;;5.63;4.05;;;;;;;9.48;52.16;94114.63;5005080;28;20048;-81
2023/04/12 06:59:41;;;;;;;6.03;4.07;;;;;;;9.65;51.63;94115.94;5007164;28;20026;-83
2023/04/12 07:02:07;;;;;;;6.03;3.95;;;;;;;9.63;51.32;94115.59;5006369;28;20077;-82
2023/04/12 07:04:32;;;;;;;7.85;4.03;;;;;;;9.67;51.32;94118.22;5005809;28;20104;-83
2023/04/12 07:06:58;;;;;;;8.75;4.18;;;;;;;9.81;51.32;94126.69;5006140;28;20033;-82
2023/04/12 07:09:23;;;;;;;6.50;4.05;;;;;;;9.93;50.76;94121.53;5005742;28;20029;-82
2023/04/12 07:11:49;;;;;;;6.95;4.45;;;;;;;9.98;50.51;94134.69;5012676;28;20025;-82
2023/04/12 07:14:14;;;;;;;5.53;4.30;;;;;;;9.96;50.76;94117.88;5013641;28;20025;-82
2023/04/12 07:16:41;;;;;;;4.85;4.13;;;;;;;10.09;50.30;94119.31;5006585;28;20033;-83
2023/04/12 07:19:07;;;;;;;6.15;3.83;;;;;;;10.01;50.20;94115.28;5005049;28;20041;-83
2023/04/12 07:21:32;;;;;;;5.57;4.30;;;;;;;9.97;50.68;94128.41;5006492;28;20022;-83
2023/04/12 07:23:58;;;;;;;5.03;4.45;;;;;;;10.13;50.53;94121.13;5006161;28;20535;-82
2023/04/12 07:26:23;;;;;;;4.70;3.90;;;;;;;10.14;50.15;94134.41;5007073;28;20080;-82
2023/04/12 07:28:49;;;;;;;4.68;4.18;;;;;;;10.22;49.50;94116.44;5006036;28;20033;-84
2023/04/12 07:31:14;;;;;;;4.38;3.95;;;;;;;10.29;48.71;94101.66;5007118;28;20026;-85
2023/04/12 07:33:40;;;;;;;4.30;3.80;;;;;;;10.54;48.55;94101.41;5004778;28;20029;-85
2023/04/12 07:36:05;;;;;;;5.93;5.15;;;;;;;10.63;48.40;94123.41;4988949;28;20030;-83
2023/04/12 07:38:31;;;;;;;3.88;3.47;;;;;;;10.86;47.92;94110.28;5006073;28;20036;-85
2023/04/12 07:40:56;;;;;;;4.65;3.72;;;;;;;11.17;47.33;94105.34;5006203;28;20048;-82
2023/04/12 07:43:22;;;;;;;6.00;3.38;;;;;;;11.29;46.25;94097.38;4988545;28;20401;-84
2023/04/12 07:45:48;;;;;;;4.25;3.28;;;;;;;11.38;45.74;94105.63;5004293;28;20053;-84
2023/04/12 07:48:14;;;;;;;5.80;4.07;;;;;;;11.57;44.60;94100.84;5005399;28;20129;-83
2023/04/12 07:50:40;;;;;;;4.22;2.90;;;;;;;11.52;44.64;94080.22;5003971;28;20034;-82
2023/04/12 07:53:22;;;;;;;4.00;2.97;;;;;;;11.51;43.55;94106.22;5005046;28;20030;-84
2023/04/12 07:55:48;;;;;;;3.33;2.83;;;;;;;11.48;42.63;94101.66;5005624;28;20038;-84
2023/04/12 07:58:14;;;;;;;3.15;2.65;;;;;;;11.54;42.24;94086.03;5007885;28;20045;-83
2023/04/12 08:00:40;;;;;;;3.17;2.55;;;;;;;11.59;42.58;94093.66;5006948;28;20080;-83
2023/04/12 08:03:05;;;;;;;2.97;2.28;;;;;;;11.60;42.43;94084.16;5005427;28;20030;-82
2023/04/12 08:05:31;;;;;;;3.28;2.67;;;;;;;11.52;42.92;94087.69;5008229;28;20018;-85
2023/04/12 08:07:56;;;;;;;3.92;2.67;;;;;;;11.34;42.13;94091.28;5014401;28;20109;-85
2023/04/12 08:10:22;;;;;;;2.72;2.20;;;;;;;11.29;42.33;94084.38;5008311;28;20448;-83
2023/04/12 08:12:47;;;;;;;3.00;2.20;;;;;;;11.38;41.90;94076.13;5006188;28;20065;-83
2023/04/12 08:15:12;;;;;;;4.97;2.28;;;;;;;11.27;41.20;94081.34;5005946;28;20033;-84
2023/04/12 08:17:38;;;;;;;3.08;2.25;;;;;;;11.71;40.30;94097.44;5004018;28;20034;-83
2023/04/12 08:20:04;;;;;;;3.08;1.92;;;;;;;11.79;39.72;94051.81;5005434;28;20132;-83
2023/04/12 08:22:30;;;;;;;2.75;2.13;;;;;;;11.86;38.84;94072.78;5004970;28;20025;-83
2023/04/12 08:24:55;;;;;;;4.82;2.60;;;;;;;11.83;38.31;94070.97;5005298;28;20026;-83
2023/04/12 08:27:21;;;;;;;2.63;1.90;;;;;;;11.91;38.48;94089.44;5004870;28;20022;-83
2023/04/12 08:29:46;;;;;;;2.90;1.83;;;;;;;12.00;37.78;94072.09;5003848;28;20032;-84
2023/04/12 08:32:12;;;;;;;10.20;2.35;;;;;;;12.17;37.05;94070.47;5005727;28;20045;-84
2023/04/12 08:34:37;;;;;;;3.75;2.03;;;;;;;12.08;36.85;94064.25;5003753;28;20033;-83
2023/04/12 08:37:03;;;;;;;2.83;1.77;;;;;;;12.27;36.37;94073.16;5004262;28;20393;-84
2023/04/12 08:39:30;;;;;;;2.95;2.08;;;;;;;12.52;36.42;94075.47;5004139;28;20049;-83
2023/04/12 08:41:56;;;;;;;3.55;2.40;;;;;;;12.73;35.72;94068.09;5003682;28;20034;-83
2023/04/12 08:44:37;;;;;;;3.63;2.35;;;;;;;12.98;34.55;94056.56;5004697;28;20026;-83
2023/04/12 08:47:03;;;;;;;3.83;1.80;;;;;;;13.12;34.83;94068.09;5003698;28;20037;-84
2023/04/12 08:49:33;;;;;;;3.05;1.85;;;;;;;13.15;34.79;94065.16;5004433;28;20085;-84
2023/04/12 08:52:09;;;;;;;4.75;2.20;;;;;;;13.46;34.47;94084.03;5005190;28;20022;-83
2023/04/12 08:54:34;;;;;;;4.53;2.17;;;;;;;13.57;34.68;94063.38;5003567;28;20108;-82
2023/04/12 08:57:03;;;;;;;6.75;2.40;;;;;;;13.93;33.64;94067.69;5004237;28;20164;-82
2023/04/12 08:59:30;;;;;;;5.32;1.85;;;;;;;13.76;32.72;94067.44;5003263;28;20046;-82
2023/04/12 09:01:57;;;;;;;3.55;1.80;;;;;;;13.87;32.84;94064.84;5006770;28;20106;-83
2023/04/12 09:04:23;;;;;;;6.38;2.63;;;;;;;13.95;32.87;94060.47;5015086;28;20038;-84
2023/04/12 09:06:48;;;;;;;9.70;6.68;;;;;;;14.31;32.16;94061.97;5004236;28;20030;-84
2023/04/12 09:09:14;;;;;;;4.30;2.08;;;;;;;14.55;31.68;94059.03;5009231;28;20386;-84
2023/04/12 09:11:39;;;;;;;3.45;1.80;;;;;;;14.92;31.19;94052.19;5008779;28;20149;-84
2023/04/12 09:14:24;;;;;;;3.05;1.60;;;;;;;15.20;30.52;94027.56;5009163;28;20509;-84
2023/04/12 09:16:50;;;;;;;3.90;1.70;;;;;;;15.08;29.73;94049.59;5007183;28;20068;-83
2023/04/12 09:19:19;;;;;;;2.28;1.50;;;;;;;15.23;29.46;94029.34;5008023;28;20536;-83
2023/04/12 09:21:55;;;;;;;4.22;1.60;;;;;;;15.64;28.56;94039.06;5007154;28;20022;-83
2023/04/12 09:24:23;;;;;;;2.85;1.48;;;;;;;15.98;27.19;94016.38;4991048;28;20052;-83
2023/04/12 09:26:53;;;;;;;1.83;1.60;;;;;;;16.16;27.78;94021.53;5007335;28;20053;-84
2023/04/12 09:29:26;;;;;;;5.00;2.05;;;;;;;16.26;26.98;94030.41;5006943;28;20131;-84
2023/04/12 09:32:01;;;;;;;2.45;1.52;;;;;;;16.50;26.54;94016.16;5007951;28;20045;-84
2023/04/12 09:34:28;;;;;;;5.38;1.60;;;;;;;16.77;26.13;94028.66;5006910;28;20030;-84
2023/04/12 09:36:53;;;;;;;3.95;1.80;;;;;;;16.91;25.49;94009.00;5008739;28;20022;-84
2023/04/12 09:39:19;;;;;;;3.67;1.65;;;;;;;16.96;26.24;94013.81;5006981;28;20041;-84
2023/04/12 09:41:44;;;;;;;3.17;1.17;;;;;;;17.27;24.97;94009.34;5008707;28;20026;-83
2023/04/12 09:44:28;;;;;;;3.95;1.63;;;;;;;17.39;25.33;93997.00;5008632;28;20401;-83
2023/04/12 09:46:54;;;;;;;3.22;1.63;;;;;;;17.19;26.04;93997.22;5006340;28;20029;-82
2023/04/12 09:49:35;;;;;;;4.72;2.17;;;;;;;17.14;27.56;93992.41;5009281;28;20030;-84
2023/04/12 09:52:00;;;;;;;6.82;2.38;;;;;;;17.31;27.01;94009.84;5006797;28;20030;-83
2023/04/12 09:54:26;;;;;;;3.75;2.03;;;;;;;17.54;26.14;94002.28;4990529;28;20463;-83
2023/04/12 09:56:53;;;;;;;4.72;1.80;;;;;;;17.75;25.63;94000.81;4990276;28;20532;-84
2023/04/12 09:59:21;;;;;;;2.88;2.20;;;;;;;18.11;24.49;94003.03;5021277;28;20065;-85
2023/04/12 10:01:47;;;;;;;3.97;1.50;;;;;;;18.32;23.37;93984.78;5007058;28;20417;-84
2023/04/12 10:04:12;;;;;;;2.42;1.40;;;;;;;18.35;23.54;93978.22;5006251;28;20096;-84
2023/04/12 10:06:40;;;;;;;2.22;1.50;;;;;;;18.37;23.00;93986.03;5007060;28;20025;-85
2023/04/12 10:09:07;;;;;;;1.58;1.00;;;;;;;18.26;22.27;93982.03;5007437;28;20026;-85
2023/04/12 10:11:33;;;;;;;2.25;1.52;;;;;;;18.39;21.95;93989.06;5008187;28;20026;-84
2023/04/12 10:14:01;;;;;;;2.35;1.50;;;;;;;18.48;20.37;93983.22;5006425;28;20423;-84
2023/04/12 10:16:26;;;;;;;4.45;1.30;;;;;;;18.36;20.15;93979.72;5007777;28;20488;-83
2023/04/12 10:18:53;;;;;;;1.63;1.10;;;;;;;18.40;20.77;93971.84;5007255;28;20026;-84
2023/04/12 10:21:19;;;;;;;4.28;1.23;;;;;;;18.49;20.41;93988.28;4989751;28;20084;-83
2023/04/12 10:23:46;;;;;;;2.03;1.40;;;;;;;18.78;20.11;93975.03;5007704;28;20034;-83
2023/04/12 10:26:14;;;;;;;4.30;1.23;;;;;;;18.74;20.44;93978.06;5005855;28;20018;-83
2023/04/12 10:28:39;;;;;;;4.45;1.40;;;;;;;18.99;20.33;93964.28;5006963;28;20036;-83
2023/04/12 10:31:31;;;;;;;4.40;1.50;;;;;;;19.02;21.10;93964.00;5007143;28;20022;-83
2023/04/12 10:33:56;;;;;;;2.03;1.10;;;;;;;19.30;20.38;93977.75;5005669;28;20046;-83
2023/04/12 10:36:50;;;;;;;3.60;1.25;;;;;;;19.28;19.93;93980.31;5006369;28;20084;-83
2023/04/12 10:39:15;;;;;;;2.13;1.25;;;;;;;19.50;19.73;93979.41;5008263;28;20036;-83
2023/04/12 10:42:19;;;;;;;2.25;1.05;;;;;;;19.73;18.46;93988.38;5011480;28;20483;-83
2023/04/12 10:44:46;;;;;;;3.55;1.70;;;;;;;19.88;18.97;93987.97;5007619;28;20492;-83
2023/04/12 10:47:11;;;;;;;2.55;1.38;;;;;;;19.96;17.87;93985.38;5006832;28;20042;-83
2023/04/12 10:49:37;;;;;;;1.35;0.85;;;;;;;20.13;17.94;93985.97;5005913;28;20104;-83
2023/04/12 10:52:09;;;;;;;2.53;1.38;;;;;;;20.47;18.34;93972.41;5006700;28;20046;-84
2023/04/12 10:54:35;;;;;;;4.15;1.30;;;;;;;20.52;18.77;93973.66;5020399;28;20030;-84
2023/04/12 10:57:02;;;;;;;3.20;1.25;;;;;;;21.11;17.46;93967.06;4989288;28;20084;-84
2023/04/12 11:00:01;;;;;;;4.45;1.50;;;;;;;21.70;16.13;93984.00;5005564;28;20390;-83
2023/04/12 11:02:26;;;;;;;4.35;1.30;;;;;;;22.09;15.70;93960.22;4988385;28;20302;-84
2023/04/12 11:05:18;;;;;;;3.67;1.40;;;;;;;22.79;15.21;93952.25;4987495;28;20022;-85
2023/04/12 11:07:45;;;;;;;2.65;1.23;;;;;;;23.40;15.02;93944.59;4999132;28;20424;-84
2023/04/12 11:10:13;;;;;;;2.90;1.05;;;;;;;23.91;14.28;93960.97;5004071;28;20116;-84
2023/04/12 11:12:40;;;;;;;2.88;1.35;;;;;;;24.13;14.49;93961.69;4987555;28;20432;-84
2023/04/12 11:15:06;;;;;;;2.88;1.20;;;;;;;24.46;14.62;93969.28;4971461;28;20033;-84
2023/04/12 11:17:31;;;;;;;2.35;1.20;;;;;;;25.25;14.13;93970.63;4987487;28;20089;-84
2023/04/12 11:20:00;;;;;;;2.13;1.08;;;;;;;25.32;14.18;93967.09;5004729;28;20125;-83
2023/04/12 11:22:27;;;;;;;1.40;0.70;;;;;;;25.55;13.16;93947.47;5003549;28;20268;-84
2023/04/12 11:24:55;;;;;;;1.27;0.80;;;;;;;25.89;13.08;93954.84;5004761;28;20065;-83
2023/04/12 11:27:22;;;;;;;2.33;0.80;;;;;;;25.93;13.25;93958.06;5003562;28;20037;-84
2023/04/12 11:29:53;;;;;;;2.67;0.80;;;;;;;26.09;12.77;93937.03;4986552;28;20048;-83
2023/04/12 11:32:19;;;;;;;2.55;0.80;;;;;;;26.18;12.75;93952.59;5003809;28;20077;-85
2023/04/12 11:34:48;;;;;;;2.05;0.93;;;;;;;24.87;13.87;93954.31;5003280;28;20042;-85